sensor_id;sensor_type;location;lat;lon;timestamp;P1;durP1;ratioP1;P2;durP2;ratioP2
4450;SDS011;2238;50.180;9.230;2022-10-31T00:00:48;6.93;;;5.27;;
4450;SDS011;2238;50.180;9.230;2022-10-31T00:03:49;9.27;;;5.70;;
4450;SDS011;2238;50.180;9.230;2022-10-31T00:06:49;9.80;;;5.40;;
4450;SDS011;2238;50.180;9.230;2022-10-31T00:09:50;8.53;;;4.77;;
4450;SDS011;2238;50.180;9.230;2022-10-31T00:12:51;8.40;;;5.90;;
4450;SDS011;2238;50.180;9.230;2022-10-31T00:15:51;10.80;;;6.10;;
4450;SDS011;2238;50.180;9.230;2022-10-31T00:18:53;6.43;;;5.60;;
4450;SDS011;2238;50.180;9.230;2022-10-31T00:21:55;9.30;;;5.50;;
4450;SDS011;2238;50.180;9.230;2022-10-31T00:24:56;7.53;;;5.97;;
4450;SDS011;2238;50.180;9.230;2022-10-31T00:27:57;8.20;;;5.53;;
4450;SDS011;2238;50.180;9.230;2022-10-31T00:30:58;9.23;;;5.30;;
4450;SDS011;2238;50.180;9.230;2022-10-31T00:34:00;8.53;;;5.67;;
4450;SDS011;2238;50.180;9.230;2022-10-31T00:37:03;9.93;;;6.93;;
4450;SDS011;2238;50.180;9.230;2022-10-31T00:40:04;15.07;;;6.07;;
4450;SDS011;2238;50.180;9.230;2022-10-31T00:43:05;10.43;;;6.50;;
4450;SDS011;2238;50.180;9.230;2022-10-31T00:46:05;9.20;;;6.60;;
4450;SDS011;2238;50.180;9.230;2022-10-31T00:49:06;11.80;;;7.03;;
4450;SDS011;2238;50.180;9.230;2022-10-31T00:52:07;9.97;;;5.90;;
4450;SDS011;2238;50.180;9.230;2022-10-31T00:55:07;8.50;;;6.57;;
4450;SDS011;2238;50.180;9.230;2022-10-31T00:58:08;8.57;;;6.23;;
4450;SDS011;2238;50.180;9.230;2022-10-31T01:01:08;7.67;;;6.20;;
4450;SDS011;2238;50.180;9.230;2022-10-31T01:04:09;10.83;;;6.73;;
4450;SDS011;2238;50.180;9.230;2022-10-31T01:07:09;6.77;;;6.13;;
4450;SDS011;2238;50.180;9.230;2022-10-31T01:10:12;9.00;;;6.03;;
4450;SDS011;2238;50.180;9.230;2022-10-31T01:13:12;7.43;;;5.83;;
4450;SDS011;2238;50.180;9.230;2022-10-31T01:16:16;7.17;;;5.57;;
4450;SDS011;2238;50.180;9.230;2022-10-31T01:19:18;10.23;;;6.07;;
4450;SDS011;2238;50.180;9.230;2022-10-31T01:22:19;6.33;;;5.43;;
4450;SDS011;2238;50.180;9.230;2022-10-31T01:25:20;7.73;;;5.33;;
4450;SDS011;2238;50.180;9.230;2022-10-31T01:28:20;6.47;;;5.20;;
4450;SDS011;2238;50.180;9.230;2022-10-31T01:31:22;9.00;;;5.90;;
4450;SDS011;2238;50.180;9.230;2022-10-31T01:34:25;8.03;;;5.77;;
4450;SDS011;2238;50.180;9.230;2022-10-31T01:37:25;8.07;;;6.43;;
4450;SDS011;2238;50.180;9.230;2022-10-31T01:40:28;9.27;;;6.13;;
4450;SDS011;2238;50.180;9.230;2022-10-31T01:43:50;8.67;;;5.60;;
4450;SDS011;2238;50.180;9.230;2022-10-31T01:53:34;11.07;;;5.70;;
4450;SDS011;2238;50.180;9.230;2022-10-31T01:56:37;7.10;;;5.90;;
4450;SDS011;2238;50.180;9.230;2022-10-31T01:59:42;7.10;;;5.73;;
4450;SDS011;2238;50.180;9.230;2022-10-31T02:02:48;8.97;;;5.60;;
4450;SDS011;2238;50.180;9.230;2022-10-31T02:05:49;6.33;;;5.73;;
4450;SDS011;2238;50.180;9.230;2022-10-31T02:08:51;9.70;;;5.33;;
4450;SDS011;2238;50.180;9.230;2022-10-31T02:11:52;6.83;;;5.67;;
4450;SDS011;2238;50.180;9.230;2022-10-31T02:14:56;7.00;;;6.17;;
4450;SDS011;2238;50.180;9.230;2022-10-31T02:17:57;10.50;;;5.70;;
4450;SDS011;2238;50.180;9.230;2022-10-31T02:40:26;7.57;;;5.83;;
4450;SDS011;2238;50.180;9.230;2022-10-31T02:47:06;6.00;;;5.40;;
4450;SDS011;2238;50.180;9.230;2022-10-31T02:50:24;8.60;;;5.73;;
4450;SDS011;2238;50.180;9.230;2022-10-31T02:53:35;7.40;;;5.70;;
4450;SDS011;2238;50.180;9.230;2022-10-31T02:56:37;13.63;;;5.23;;
4450;SDS011;2238;50.180;9.230;2022-10-31T02:59:38;7.67;;;6.63;;
4450;SDS011;2238;50.180;9.230;2022-10-31T03:06:20;7.80;;;6.40;;
4450;SDS011;2238;50.180;9.230;2022-10-31T03:09:33;8.20;;;6.30;;
4450;SDS011;2238;50.180;9.230;2022-10-31T03:15:46;7.97;;;5.67;;
4450;SDS011;2238;50.180;9.230;2022-10-31T03:21:58;9.00;;;7.23;;
4450;SDS011;2238;50.180;9.230;2022-10-31T03:25:02;7.30;;;5.37;;
4450;SDS011;2238;50.180;9.230;2022-10-31T03:28:05;12.80;;;5.87;;
4450;SDS011;2238;50.180;9.230;2022-10-31T03:31:07;10.30;;;7.17;;
4450;SDS011;2238;50.180;9.230;2022-10-31T03:34:08;7.57;;;5.83;;
4450;SDS011;2238;50.180;9.230;2022-10-31T03:37:13;7.83;;;6.40;;
4450;SDS011;2238;50.180;9.230;2022-10-31T03:40:16;10.27;;;5.90;;
4450;SDS011;2238;50.180;9.230;2022-10-31T03:43:25;10.93;;;5.53;;
4450;SDS011;2238;50.180;9.230;2022-10-31T03:46:29;6.77;;;5.90;;
4450;SDS011;2238;50.180;9.230;2022-10-31T03:49:31;7.73;;;5.90;;
4450;SDS011;2238;50.180;9.230;2022-10-31T03:52:34;10.20;;;5.17;;
4450;SDS011;2238;50.180;9.230;2022-10-31T03:55:57;9.50;;;6.43;;
4450;SDS011;2238;50.180;9.230;2022-10-31T03:59:10;9.30;;;6.33;;
4450;SDS011;2238;50.180;9.230;2022-10-31T04:02:25;7.80;;;6.40;;
4450;SDS011;2238;50.180;9.230;2022-10-31T04:05:29;9.27;;;6.20;;
4450;SDS011;2238;50.180;9.230;2022-10-31T04:08:31;11.50;;;6.70;;
4450;SDS011;2238;50.180;9.230;2022-10-31T04:11:37;6.13;;;5.53;;
4450;SDS011;2238;50.180;9.230;2022-10-31T04:14:42;7.80;;;6.47;;
4450;SDS011;2238;50.180;9.230;2022-10-31T04:17:46;8.47;;;6.77;;
4450;SDS011;2238;50.180;9.230;2022-10-31T04:20:49;25.47;;;17.43;;
4450;SDS011;2238;50.180;9.230;2022-10-31T04:23:58;21.87;;;16.40;;
4450;SDS011;2238;50.180;9.230;2022-10-31T04:26:59;9.83;;;8.77;;
4450;SDS011;2238;50.180;9.230;2022-10-31T04:30:00;8.70;;;7.80;;
4450;SDS011;2238;50.180;9.230;2022-10-31T04:33:00;23.70;;;18.03;;
4450;SDS011;2238;50.180;9.230;2022-10-31T04:36:01;20.60;;;16.80;;
4450;SDS011;2238;50.180;9.230;2022-10-31T04:39:02;17.30;;;11.50;;
4450;SDS011;2238;50.180;9.230;2022-10-31T04:42:02;11.00;;;9.53;;
4450;SDS011;2238;50.180;9.230;2022-10-31T04:45:03;8.80;;;7.93;;
4450;SDS011;2238;50.180;9.230;2022-10-31T04:48:04;11.10;;;7.40;;
4450;SDS011;2238;50.180;9.230;2022-10-31T04:51:05;9.63;;;7.30;;
4450;SDS011;2238;50.180;9.230;2022-10-31T04:54:06;10.20;;;9.17;;
4450;SDS011;2238;50.180;9.230;2022-10-31T04:57:06;9.30;;;6.60;;
4450;SDS011;2238;50.180;9.230;2022-10-31T05:00:07;7.80;;;7.00;;
4450;SDS011;2238;50.180;9.230;2022-10-31T05:03:09;9.57;;;7.30;;
4450;SDS011;2238;50.180;9.230;2022-10-31T05:06:09;7.73;;;5.70;;
4450;SDS011;2238;50.180;9.230;2022-10-31T05:09:10;6.63;;;6.00;;
4450;SDS011;2238;50.180;9.230;2022-10-31T05:12:10;9.80;;;6.30;;
4450;SDS011;2238;50.180;9.230;2022-10-31T05:15:11;7.57;;;6.70;;
4450;SDS011;2238;50.180;9.230;2022-10-31T05:18:11;6.23;;;5.60;;
4450;SDS011;2238;50.180;9.230;2022-10-31T05:21:12;8.97;;;7.20;;
4450;SDS011;2238;50.180;9.230;2022-10-31T05:24:12;9.13;;;6.50;;
4450;SDS011;2238;50.180;9.230;2022-10-31T05:27:13;8.20;;;7.40;;
4450;SDS011;2238;50.180;9.230;2022-10-31T05:30:15;11.30;;;8.50;;
4450;SDS011;2238;50.180;9.230;2022-10-31T05:33:17;11.67;;;9.47;;
4450;SDS011;2238;50.180;9.230;2022-10-31T05:36:18;10.57;;;8.67;;
4450;SDS011;2238;50.180;9.230;2022-10-31T05:39:19;11.00;;;9.00;;
4450;SDS011;2238;50.180;9.230;2022-10-31T05:42:19;11.43;;;9.40;;
4450;SDS011;2238;50.180;9.230;2022-10-31T05:45:20;12.60;;;8.90;;
4450;SDS011;2238;50.180;9.230;2022-10-31T05:48:21;9.90;;;8.90;;
4450;SDS011;2238;50.180;9.230;2022-10-31T05:51:22;8.50;;;7.70;;
4450;SDS011;2238;50.180;9.230;2022-10-31T05:54:23;10.20;;;7.53;;
4450;SDS011;2238;50.180;9.230;2022-10-31T05:57:23;11.70;;;7.70;;
4450;SDS011;2238;50.180;9.230;2022-10-31T06:00:26;8.30;;;7.50;;
4450;SDS011;2238;50.180;9.230;2022-10-31T06:03:27;11.03;;;8.83;;
4450;SDS011;2238;50.180;9.230;2022-10-31T06:06:28;25.03;;;16.43;;
4450;SDS011;2238;50.180;9.230;2022-10-31T06:09:29;15.73;;;10.90;;
4450;SDS011;2238;50.180;9.230;2022-10-31T06:12:29;11.30;;;8.97;;
4450;SDS011;2238;50.180;9.230;2022-10-31T06:15:30;12.90;;;10.57;;
4450;SDS011;2238;50.180;9.230;2022-10-31T06:18:31;11.50;;;9.33;;
4450;SDS011;2238;50.180;9.230;2022-10-31T06:21:31;11.80;;;8.67;;
4450;SDS011;2238;50.180;9.230;2022-10-31T06:24:32;9.50;;;8.07;;
4450;SDS011;2238;50.180;9.230;2022-10-31T06:27:32;10.47;;;8.57;;
4450;SDS011;2238;50.180;9.230;2022-10-31T06:30:33;13.47;;;8.93;;
4450;SDS011;2238;50.180;9.230;2022-10-31T06:33:34;15.23;;;8.53;;
4450;SDS011;2238;50.180;9.230;2022-10-31T06:36:34;9.43;;;7.00;;
4450;SDS011;2238;50.180;9.230;2022-10-31T06:39:35;19.87;;;13.47;;
4450;SDS011;2238;50.180;9.230;2022-10-31T06:42:36;25.07;;;14.40;;
4450;SDS011;2238;50.180;9.230;2022-10-31T06:45:36;26.20;;;19.53;;
4450;SDS011;2238;50.180;9.230;2022-10-31T06:48:37;19.50;;;14.43;;
4450;SDS011;2238;50.180;9.230;2022-10-31T06:51:38;10.67;;;9.57;;
4450;SDS011;2238;50.180;9.230;2022-10-31T06:54:38;13.73;;;9.97;;
4450;SDS011;2238;50.180;9.230;2022-10-31T06:57:39;11.13;;;9.10;;
4450;SDS011;2238;50.180;9.230;2022-10-31T07:00:39;10.80;;;7.67;;
4450;SDS011;2238;50.180;9.230;2022-10-31T07:03:40;11.97;;;6.60;;
4450;SDS011;2238;50.180;9.230;2022-10-31T07:06:40;9.27;;;6.43;;
4450;SDS011;2238;50.180;9.230;2022-10-31T07:09:41;11.53;;;6.67;;
4450;SDS011;2238;50.180;9.230;2022-10-31T07:12:41;11.90;;;6.90;;
4450;SDS011;2238;50.180;9.230;2022-10-31T07:15:43;13.50;;;7.30;;
4450;SDS011;2238;50.180;9.230;2022-10-31T07:18:43;10.83;;;7.00;;
4450;SDS011;2238;50.180;9.230;2022-10-31T07:21:44;13.13;;;5.97;;
4450;SDS011;2238;50.180;9.230;2022-10-31T07:24:44;8.50;;;5.60;;
4450;SDS011;2238;50.180;9.230;2022-10-31T07:27:45;8.13;;;7.33;;
4450;SDS011;2238;50.180;9.230;2022-10-31T07:30:49;9.93;;;6.60;;
4450;SDS011;2238;50.180;9.230;2022-10-31T07:33:53;12.70;;;6.13;;
4450;SDS011;2238;50.180;9.230;2022-10-31T07:36:54;9.60;;;7.40;;
4450;SDS011;2238;50.180;9.230;2022-10-31T07:39:54;6.80;;;6.10;;
4450;SDS011;2238;50.180;9.230;2022-10-31T07:42:55;9.10;;;6.87;;
4450;SDS011;2238;50.180;9.230;2022-10-31T07:45:58;7.27;;;5.43;;
4450;SDS011;2238;50.180;9.230;2022-10-31T07:48:58;10.63;;;6.00;;
4450;SDS011;2238;50.180;9.230;2022-10-31T07:51:59;10.03;;;6.57;;
4450;SDS011;2238;50.180;9.230;2022-10-31T07:54:59;12.37;;;6.43;;
4450;SDS011;2238;50.180;9.230;2022-10-31T07:58:02;7.67;;;6.93;;
4450;SDS011;2238;50.180;9.230;2022-10-31T08:01:04;8.90;;;6.73;;
4450;SDS011;2238;50.180;9.230;2022-10-31T08:04:05;8.47;;;7.67;;
4450;SDS011;2238;50.180;9.230;2022-10-31T08:07:05;9.40;;;7.10;;
4450;SDS011;2238;50.180;9.230;2022-10-31T08:10:06;7.37;;;5.87;;
4450;SDS011;2238;50.180;9.230;2022-10-31T08:13:08;9.30;;;6.63;;
4450;SDS011;2238;50.180;9.230;2022-10-31T08:16:10;8.40;;;6.13;;
4450;SDS011;2238;50.180;9.230;2022-10-31T08:19:10;9.27;;;5.80;;
4450;SDS011;2238;50.180;9.230;2022-10-31T08:22:11;7.00;;;6.30;;
4450;SDS011;2238;50.180;9.230;2022-10-31T08:25:11;8.70;;;7.60;;
4450;SDS011;2238;50.180;9.230;2022-10-31T08:28:12;21.13;;;11.80;;
4450;SDS011;2238;50.180;9.230;2022-10-31T08:31:13;13.03;;;11.83;;
4450;SDS011;2238;50.180;9.230;2022-10-31T08:34:14;16.60;;;14.73;;
4450;SDS011;2238;50.180;9.230;2022-10-31T08:37:15;13.50;;;12.10;;
4450;SDS011;2238;50.180;9.230;2022-10-31T08:40:19;9.30;;;7.63;;
4450;SDS011;2238;50.180;9.230;2022-10-31T08:43:20;9.90;;;9.10;;
4450;SDS011;2238;50.180;9.230;2022-10-31T08:46:21;13.93;;;11.00;;
4450;SDS011;2238;50.180;9.230;2022-10-31T08:49:21;10.47;;;9.40;;
4450;SDS011;2238;50.180;9.230;2022-10-31T08:52:23;9.87;;;7.57;;
4450;SDS011;2238;50.180;9.230;2022-10-31T08:55:24;8.07;;;7.37;;
4450;SDS011;2238;50.180;9.230;2022-10-31T08:58:25;25.00;;;11.87;;
4450;SDS011;2238;50.180;9.230;2022-10-31T09:01:25;10.30;;;7.63;;
4450;SDS011;2238;50.180;9.230;2022-10-31T09:04:26;12.00;;;8.43;;
4450;SDS011;2238;50.180;9.230;2022-10-31T09:07:26;16.33;;;8.30;;
4450;SDS011;2238;50.180;9.230;2022-10-31T09:10:27;13.83;;;7.80;;
4450;SDS011;2238;50.180;9.230;2022-10-31T09:13:29;8.00;;;6.97;;
4450;SDS011;2238;50.180;9.230;2022-10-31T09:16:30;10.30;;;7.53;;
4450;SDS011;2238;50.180;9.230;2022-10-31T09:19:30;8.07;;;7.27;;
4450;SDS011;2238;50.180;9.230;2022-10-31T09:22:31;9.33;;;6.67;;
4450;SDS011;2238;50.180;9.230;2022-10-31T09:25:32;10.17;;;6.20;;
4450;SDS011;2238;50.180;9.230;2022-10-31T09:28:33;8.20;;;6.67;;
4450;SDS011;2238;50.180;9.230;2022-10-31T09:31:33;12.43;;;7.07;;
4450;SDS011;2238;50.180;9.230;2022-10-31T09:34:34;13.93;;;7.20;;
4450;SDS011;2238;50.180;9.230;2022-10-31T09:37:34;9.57;;;6.40;;
4450;SDS011;2238;50.180;9.230;2022-10-31T09:47:09;8.03;;;6.27;;
4450;SDS011;2238;50.180;9.230;2022-10-31T09:50:38;9.73;;;6.20;;
4450;SDS011;2238;50.180;9.230;2022-10-31T09:56:50;11.40;;;7.53;;
4450;SDS011;2238;50.180;9.230;2022-10-31T09:59:51;9.23;;;6.10;;
4450;SDS011;2238;50.180;9.230;2022-10-31T10:02:56;9.50;;;6.30;;
4450;SDS011;2238;50.180;9.230;2022-10-31T10:06:21;9.07;;;6.23;;
4450;SDS011;2238;50.180;9.230;2022-10-31T10:09:25;10.07;;;6.47;;
4450;SDS011;2238;50.180;9.230;2022-10-31T10:19:30;7.90;;;5.57;;
4450;SDS011;2238;50.180;9.230;2022-10-31T10:22:54;10.17;;;6.83;;
4450;SDS011;2238;50.180;9.230;2022-10-31T10:26:50;8.17;;;6.03;;
4450;SDS011;2238;50.180;9.230;2022-10-31T10:29:46;9.27;;;6.27;;
4450;SDS011;2238;50.180;9.230;2022-10-31T10:56:24;10.43;;;6.63;;
4450;SDS011;2238;50.180;9.230;2022-10-31T10:59:54;7.17;;;5.87;;
4450;SDS011;2238;50.180;9.230;2022-10-31T11:02:55;8.87;;;7.30;;
4450;SDS011;2238;50.180;9.230;2022-10-31T11:05:57;9.73;;;6.80;;
4450;SDS011;2238;50.180;9.230;2022-10-31T11:09:08;15.40;;;6.93;;
4450;SDS011;2238;50.180;9.230;2022-10-31T11:12:15;8.80;;;6.67;;
4450;SDS011;2238;50.180;9.230;2022-10-31T11:15:18;13.13;;;7.53;;
4450;SDS011;2238;50.180;9.230;2022-10-31T11:18:28;11.27;;;7.40;;
4450;SDS011;2238;50.180;9.230;2022-10-31T11:21:31;15.23;;;6.50;;
4450;SDS011;2238;50.180;9.230;2022-10-31T11:24:39;14.47;;;6.93;;
4450;SDS011;2238;50.180;9.230;2022-10-31T11:27:41;7.50;;;6.53;;
4450;SDS011;2238;50.180;9.230;2022-10-31T11:30:48;7.03;;;6.33;;
4450;SDS011;2238;50.180;9.230;2022-10-31T11:33:53;12.10;;;7.33;;
4450;SDS011;2238;50.180;9.230;2022-10-31T11:37:13;9.90;;;6.53;;
4450;SDS011;2238;50.180;9.230;2022-10-31T11:40:21;10.80;;;7.20;;
4450;SDS011;2238;50.180;9.230;2022-10-31T11:43:24;7.43;;;6.70;;
4450;SDS011;2238;50.180;9.230;2022-10-31T11:46:35;8.70;;;6.50;;
4450;SDS011;2238;50.180;9.230;2022-10-31T11:49:42;11.10;;;6.00;;
4450;SDS011;2238;50.180;9.230;2022-10-31T11:52:50;10.43;;;6.47;;
4450;SDS011;2238;50.180;9.230;2022-10-31T11:56:00;8.63;;;6.60;;
4450;SDS011;2238;50.180;9.230;2022-10-31T11:59:02;13.07;;;6.50;;
4450;SDS011;2238;50.180;9.230;2022-10-31T12:02:16;8.90;;;6.20;;
4450;SDS011;2238;50.180;9.230;2022-10-31T12:05:20;39.10;;;10.53;;
4450;SDS011;2238;50.180;9.230;2022-10-31T12:08:25;9.90;;;6.80;;
4450;SDS011;2238;50.180;9.230;2022-10-31T12:11:58;10.20;;;6.87;;
4450;SDS011;2238;50.180;9.230;2022-10-31T12:43:29;11.27;;;7.17;;
4450;SDS011;2238;50.180;9.230;2022-10-31T12:56:12;10.27;;;7.67;;
4450;SDS011;2238;50.180;9.230;2022-10-31T12:59:59;9.30;;;7.03;;
4450;SDS011;2238;50.180;9.230;2022-10-31T13:03:02;12.73;;;7.70;;
4450;SDS011;2238;50.180;9.230;2022-10-31T13:06:27;11.53;;;7.37;;
4450;SDS011;2238;50.180;9.230;2022-10-31T13:09:38;12.40;;;6.90;;
4450;SDS011;2238;50.180;9.230;2022-10-31T13:12:45;11.03;;;6.30;;
4450;SDS011;2238;50.180;9.230;2022-10-31T13:15:51;10.07;;;6.90;;
4450;SDS011;2238;50.180;9.230;2022-10-31T13:28:24;6.50;;;5.90;;
4450;SDS011;2238;50.180;9.230;2022-10-31T13:31:26;7.73;;;6.77;;
4450;SDS011;2238;50.180;9.230;2022-10-31T13:34:34;10.00;;;6.33;;
4450;SDS011;2238;50.180;9.230;2022-10-31T13:37:49;8.93;;;6.63;;
4450;SDS011;2238;50.180;9.230;2022-10-31T13:40:58;12.33;;;6.60;;
4450;SDS011;2238;50.180;9.230;2022-10-31T13:44:20;7.33;;;5.70;;
4450;SDS011;2238;50.180;9.230;2022-10-31T13:47:26;10.37;;;6.13;;
4450;SDS011;2238;50.180;9.230;2022-10-31T13:50:29;7.00;;;6.00;;
4450;SDS011;2238;50.180;9.230;2022-10-31T13:56:38;7.00;;;5.63;;
4450;SDS011;2238;50.180;9.230;2022-10-31T13:59:45;7.53;;;6.20;;
4450;SDS011;2238;50.180;9.230;2022-10-31T14:02:55;7.70;;;5.47;;
4450;SDS011;2238;50.180;9.230;2022-10-31T14:05:57;9.90;;;6.40;;
4450;SDS011;2238;50.180;9.230;2022-10-31T14:08:58;7.60;;;6.73;;
4450;SDS011;2238;50.180;9.230;2022-10-31T14:12:00;8.20;;;6.17;;
4450;SDS011;2238;50.180;9.230;2022-10-31T14:15:17;7.07;;;6.20;;
4450;SDS011;2238;50.180;9.230;2022-10-31T14:18:23;8.43;;;6.10;;
4450;SDS011;2238;50.180;9.230;2022-10-31T14:21:29;12.07;;;6.80;;
4450;SDS011;2238;50.180;9.230;2022-10-31T14:24:36;13.53;;;6.53;;
4450;SDS011;2238;50.180;9.230;2022-10-31T14:27:44;9.20;;;6.27;;
4450;SDS011;2238;50.180;9.230;2022-10-31T14:30:53;10.53;;;6.97;;
4450;SDS011;2238;50.180;9.230;2022-10-31T14:33:56;13.30;;;6.57;;
4450;SDS011;2238;50.180;9.230;2022-10-31T14:47:36;7.17;;;6.47;;
4450;SDS011;2238;50.180;9.230;2022-10-31T14:53:52;12.13;;;7.20;;
4450;SDS011;2238;50.180;9.230;2022-10-31T14:56:56;11.07;;;6.90;;
4450;SDS011;2238;50.180;9.230;2022-10-31T15:00:06;7.80;;;7.00;;
4450;SDS011;2238;50.180;9.230;2022-10-31T15:06:27;9.47;;;7.60;;
4450;SDS011;2238;50.180;9.230;2022-10-31T15:09:37;7.90;;;7.10;;
4450;SDS011;2238;50.180;9.230;2022-10-31T15:12:40;10.67;;;7.97;;
4450;SDS011;2238;50.180;9.230;2022-10-31T15:15:41;9.63;;;7.93;;
4450;SDS011;2238;50.180;9.230;2022-10-31T15:18:46;9.33;;;7.57;;
4450;SDS011;2238;50.180;9.230;2022-10-31T15:21:58;16.90;;;10.00;;
4450;SDS011;2238;50.180;9.230;2022-10-31T15:25:00;19.80;;;11.20;;
4450;SDS011;2238;50.180;9.230;2022-10-31T15:28:01;13.23;;;8.37;;
4450;SDS011;2238;50.180;9.230;2022-10-31T15:31:12;11.57;;;7.80;;
4450;SDS011;2238;50.180;9.230;2022-10-31T15:34:20;13.33;;;8.00;;
4450;SDS011;2238;50.180;9.230;2022-10-31T15:37:41;12.07;;;8.87;;
4450;SDS011;2238;50.180;9.230;2022-10-31T15:40:50;9.47;;;8.47;;
4450;SDS011;2238;50.180;9.230;2022-10-31T15:43:54;13.73;;;8.60;;
4450;SDS011;2238;50.180;9.230;2022-10-31T15:47:01;11.23;;;7.83;;
4450;SDS011;2238;50.180;9.230;2022-10-31T15:50:05;12.20;;;8.00;;
4450;SDS011;2238;50.180;9.230;2022-10-31T15:56:34;8.87;;;7.70;;
4450;SDS011;2238;50.180;9.230;2022-10-31T15:59:35;10.60;;;7.63;;
4450;SDS011;2238;50.180;9.230;2022-10-31T16:02:35;9.57;;;7.87;;
4450;SDS011;2238;50.180;9.230;2022-10-31T16:05:49;14.73;;;8.37;;
4450;SDS011;2238;50.180;9.230;2022-10-31T16:08:51;11.07;;;7.20;;
4450;SDS011;2238;50.180;9.230;2022-10-31T16:11:52;9.70;;;7.73;;
4450;SDS011;2238;50.180;9.230;2022-10-31T16:14:55;17.02;;;8.63;;
4450;SDS011;2238;50.180;9.230;2022-10-31T16:17:55;19.40;;;8.50;;
4450;SDS011;2238;50.180;9.230;2022-10-31T16:20:56;11.47;;;7.83;;
4450;SDS011;2238;50.180;9.230;2022-10-31T16:23:59;12.47;;;9.67;;
4450;SDS011;2238;50.180;9.230;2022-10-31T16:27:03;23.73;;;11.07;;
4450;SDS011;2238;50.180;9.230;2022-10-31T16:33:33;14.77;;;9.30;;
4450;SDS011;2238;50.180;9.230;2022-10-31T16:36:40;10.83;;;9.50;;
4450;SDS011;2238;50.180;9.230;2022-10-31T16:39:41;15.90;;;10.13;;
4450;SDS011;2238;50.180;9.230;2022-10-31T16:42:42;13.33;;;10.70;;
4450;SDS011;2238;50.180;9.230;2022-10-31T16:45:45;13.27;;;9.13;;
4450;SDS011;2238;50.180;9.230;2022-10-31T16:48:53;14.73;;;13.07;;
4450;SDS011;2238;50.180;9.230;2022-10-31T16:51:54;15.87;;;13.13;;
4450;SDS011;2238;50.180;9.230;2022-10-31T16:54:54;14.43;;;8.63;;
4450;SDS011;2238;50.180;9.230;2022-10-31T16:57:56;13.70;;;7.83;;
4450;SDS011;2238;50.180;9.230;2022-10-31T17:00:58;15.30;;;8.23;;
4450;SDS011;2238;50.180;9.230;2022-10-31T17:03:59;12.43;;;8.00;;
4450;SDS011;2238;50.180;9.230;2022-10-31T17:07:00;14.63;;;8.53;;
4450;SDS011;2238;50.180;9.230;2022-10-31T17:10:00;20.30;;;8.33;;
4450;SDS011;2238;50.180;9.230;2022-10-31T17:13:01;9.63;;;8.60;;
4450;SDS011;2238;50.180;9.230;2022-10-31T17:16:03;11.23;;;7.80;;
4450;SDS011;2238;50.180;9.230;2022-10-31T17:19:04;13.50;;;7.90;;
4450;SDS011;2238;50.180;9.230;2022-10-31T17:22:05;10.90;;;9.23;;
4450;SDS011;2238;50.180;9.230;2022-10-31T17:25:07;12.10;;;8.80;;
4450;SDS011;2238;50.180;9.230;2022-10-31T17:28:12;16.20;;;9.50;;
4450;SDS011;2238;50.180;9.230;2022-10-31T17:31:23;12.80;;;8.57;;
4450;SDS011;2238;50.180;9.230;2022-10-31T17:34:27;10.17;;;8.63;;
4450;SDS011;2238;50.180;9.230;2022-10-31T17:37:28;9.03;;;8.00;;
4450;SDS011;2238;50.180;9.230;2022-10-31T17:40:29;10.40;;;8.13;;
4450;SDS011;2238;50.180;9.230;2022-10-31T17:43:29;9.73;;;7.37;;
4450;SDS011;2238;50.180;9.230;2022-10-31T17:46:30;14.70;;;7.43;;
4450;SDS011;2238;50.180;9.230;2022-10-31T17:49:30;11.40;;;8.13;;
4450;SDS011;2238;50.180;9.230;2022-10-31T17:52:31;9.70;;;8.33;;
4450;SDS011;2238;50.180;9.230;2022-10-31T17:55:32;9.77;;;8.23;;
4450;SDS011;2238;50.180;9.230;2022-10-31T17:58:35;9.33;;;6.80;;
4450;SDS011;2238;50.180;9.230;2022-10-31T18:01:36;9.53;;;6.70;;
4450;SDS011;2238;50.180;9.230;2022-10-31T18:04:37;11.30;;;7.60;;
4450;SDS011;2238;50.180;9.230;2022-10-31T18:07:39;9.00;;;6.97;;
4450;SDS011;2238;50.180;9.230;2022-10-31T18:10:40;7.90;;;7.17;;
4450;SDS011;2238;50.180;9.230;2022-10-31T18:13:41;12.50;;;7.23;;
4450;SDS011;2238;50.180;9.230;2022-10-31T18:16:41;11.73;;;6.73;;
4450;SDS011;2238;50.180;9.230;2022-10-31T18:19:42;7.10;;;6.40;;
4450;SDS011;2238;50.180;9.230;2022-10-31T18:22:43;13.80;;;9.33;;
4450;SDS011;2238;50.180;9.230;2022-10-31T18:25:43;15.93;;;9.30;;
4450;SDS011;2238;50.180;9.230;2022-10-31T18:28:44;13.53;;;8.20;;
4450;SDS011;2238;50.180;9.230;2022-10-31T18:31:44;14.23;;;8.73;;
4450;SDS011;2238;50.180;9.230;2022-10-31T18:34:47;14.87;;;9.90;;
4450;SDS011;2238;50.180;9.230;2022-10-31T18:37:48;16.67;;;12.57;;
4450;SDS011;2238;50.180;9.230;2022-10-31T18:40:49;12.97;;;10.40;;
4450;SDS011;2238;50.180;9.230;2022-10-31T18:43:50;13.90;;;11.70;;
4450;SDS011;2238;50.180;9.230;2022-10-31T18:46:55;13.57;;;10.70;;
4450;SDS011;2238;50.180;9.230;2022-10-31T18:49:55;14.33;;;9.80;;
4450;SDS011;2238;50.180;9.230;2022-10-31T18:52:56;9.80;;;8.40;;
4450;SDS011;2238;50.180;9.230;2022-10-31T18:55:57;13.37;;;8.37;;
4450;SDS011;2238;50.180;9.230;2022-10-31T18:58:58;14.90;;;7.80;;
4450;SDS011;2238;50.180;9.230;2022-10-31T19:02:02;8.80;;;6.70;;
4450;SDS011;2238;50.180;9.230;2022-10-31T19:05:03;6.53;;;5.93;;
4450;SDS011;2238;50.180;9.230;2022-10-31T19:08:04;11.50;;;6.93;;
4450;SDS011;2238;50.180;9.230;2022-10-31T19:11:05;10.23;;;7.03;;
4450;SDS011;2238;50.180;9.230;2022-10-31T19:14:11;9.53;;;7.40;;
4450;SDS011;2238;50.180;9.230;2022-10-31T19:17:12;11.67;;;6.63;;
4450;SDS011;2238;50.180;9.230;2022-10-31T19:20:13;9.03;;;6.80;;
4450;SDS011;2238;50.180;9.230;2022-10-31T19:23:14;8.93;;;7.53;;
4450;SDS011;2238;50.180;9.230;2022-10-31T19:26:16;16.27;;;8.63;;
4450;SDS011;2238;50.180;9.230;2022-10-31T19:29:16;21.87;;;8.23;;
4450;SDS011;2238;50.180;9.230;2022-10-31T19:32:17;11.03;;;7.20;;
4450;SDS011;2238;50.180;9.230;2022-10-31T19:35:18;9.10;;;7.00;;
4450;SDS011;2238;50.180;9.230;2022-10-31T19:38:18;9.43;;;7.10;;
4450;SDS011;2238;50.180;9.230;2022-10-31T19:41:20;13.27;;;7.90;;
4450;SDS011;2238;50.180;9.230;2022-10-31T19:44:23;10.63;;;8.77;;
4450;SDS011;2238;50.180;9.230;2022-10-31T19:47:24;13.40;;;8.20;;
4450;SDS011;2238;50.180;9.230;2022-10-31T19:50:25;9.30;;;7.07;;
4450;SDS011;2238;50.180;9.230;2022-10-31T19:53:27;13.20;;;6.90;;
4450;SDS011;2238;50.180;9.230;2022-10-31T19:56:29;11.43;;;7.73;;
4450;SDS011;2238;50.180;9.230;2022-10-31T19:59:30;8.90;;;7.90;;
4450;SDS011;2238;50.180;9.230;2022-10-31T20:02:30;11.30;;;9.10;;
4450;SDS011;2238;50.180;9.230;2022-10-31T20:05:31;11.10;;;8.93;;
4450;SDS011;2238;50.180;9.230;2022-10-31T20:08:32;15.37;;;8.90;;
4450;SDS011;2238;50.180;9.230;2022-10-31T20:11:35;12.87;;;9.93;;
4450;SDS011;2238;50.180;9.230;2022-10-31T20:14:37;13.33;;;9.83;;
4450;SDS011;2238;50.180;9.230;2022-10-31T20:17:38;11.00;;;9.57;;
4450;SDS011;2238;50.180;9.230;2022-10-31T20:20:38;15.17;;;11.90;;
4450;SDS011;2238;50.180;9.230;2022-10-31T20:23:39;14.53;;;11.40;;
4450;SDS011;2238;50.180;9.230;2022-10-31T20:26:40;13.27;;;11.93;;
4450;SDS011;2238;50.180;9.230;2022-10-31T20:29:41;15.73;;;12.53;;
4450;SDS011;2238;50.180;9.230;2022-10-31T20:32:42;16.37;;;14.67;;
4450;SDS011;2238;50.180;9.230;2022-10-31T20:35:42;16.90;;;13.37;;
4450;SDS011;2238;50.180;9.230;2022-10-31T20:38:44;15.90;;;14.20;;
4450;SDS011;2238;50.180;9.230;2022-10-31T20:41:44;16.10;;;14.40;;
4450;SDS011;2238;50.180;9.230;2022-10-31T20:44:45;17.73;;;14.10;;
4450;SDS011;2238;50.180;9.230;2022-10-31T20:47:46;16.43;;;14.73;;
4450;SDS011;2238;50.180;9.230;2022-10-31T20:50:46;17.60;;;13.63;;
4450;SDS011;2238;50.180;9.230;2022-10-31T20:53:50;16.03;;;13.03;;
4450;SDS011;2238;50.180;9.230;2022-10-31T20:56:52;16.93;;;14.43;;
4450;SDS011;2238;50.180;9.230;2022-10-31T20:59:53;17.67;;;14.40;;
4450;SDS011;2238;50.180;9.230;2022-10-31T21:02:53;15.57;;;13.97;;
4450;SDS011;2238;50.180;9.230;2022-10-31T21:05:55;14.83;;;13.13;;
4450;SDS011;2238;50.180;9.230;2022-10-31T21:08:59;13.47;;;12.07;;
4450;SDS011;2238;50.180;9.230;2022-10-31T21:12:00;16.07;;;13.20;;
4450;SDS011;2238;50.180;9.230;2022-10-31T21:15:00;33.53;;;15.90;;
4450;SDS011;2238;50.180;9.230;2022-10-31T21:18:01;16.47;;;14.77;;
4450;SDS011;2238;50.180;9.230;2022-10-31T21:24:32;14.97;;;13.57;;